sensor_id;sensor_type;location;lat;lon;timestamp;pressure;altitude;pressure_sealevel;temperature;humidity
64343;BME280;50675;53.530;-6.312;2023-05-21T00:17:20;101918.50;;;16.32;57.83
64343;BME280;50675;53.530;-6.312;2023-05-21T02:00:49;101851.22;;;15.89;59.10
64343;BME280;50675;53.530;-6.312;2023-05-21T02:06:32;101860.16;;;15.84;59.34
64343;BME280;50675;53.530;-6.312;2023-05-21T02:09:30;101854.06;;;15.77;59.25
64343;BME280;50675;53.530;-6.312;2023-05-21T02:15:44;101857.28;;;15.74;59.18
64343;BME280;50675;53.530;-6.312;2023-05-21T02:18:18;101859.94;;;15.69;59.27
64343;BME280;50675;53.530;-6.312;2023-05-21T02:21:08;101843.22;;;15.60;59.49
64343;BME280;50675;53.530;-6.312;2023-05-21T02:23:40;101838.84;;;15.59;59.55
64343;BME280;50675;53.530;-6.312;2023-05-21T02:26:15;101847.53;;;15.56;59.22
64343;BME280;50675;53.530;-6.312;2023-05-21T02:31:37;101840.44;;;15.55;59.34
64343;BME280;50675;53.530;-6.312;2023-05-21T02:34:22;101855.47;;;15.58;59.51
64343;BME280;50675;53.530;-6.312;2023-05-21T02:36:55;101854.31;;;15.54;59.57
64343;BME280;50675;53.530;-6.312;2023-05-21T02:42:41;101845.56;;;15.52;59.59
64343;BME280;50675;53.530;-6.312;2023-05-21T02:45:45;101846.16;;;15.54;59.62
64343;BME280;50675;53.530;-6.312;2023-05-21T03:56:55;101846.28;;;15.47;59.88
64343;BME280;50675;53.530;-6.312;2023-05-21T04:21:12;101833.16;;;15.61;60.14
64343;BME280;50675;53.530;-6.312;2023-05-21T04:24:02;101832.97;;;15.67;60.24
64343;BME280;50675;53.530;-6.312;2023-05-21T04:46:57;101823.91;;;15.84;60.31
64343;BME280;50675;53.530;-6.312;2023-05-21T04:50:27;101828.03;;;15.86;60.37
64343;BME280;50675;53.530;-6.312;2023-05-21T04:53:57;101821.22;;;15.89;60.39
64343;BME280;50675;53.530;-6.312;2023-05-21T04:57:10;101822.88;;;15.90;60.53
64343;BME280;50675;53.530;-6.312;2023-05-21T04:59:38;101824.25;;;15.92;60.50
64343;BME280;50675;53.530;-6.312;2023-05-21T05:02:38;101814.53;;;15.96;60.30
64343;BME280;50675;53.530;-6.312;2023-05-21T05:05:09;101814.84;;;16.00;60.58
64343;BME280;50675;53.530;-6.312;2023-05-21T05:07:35;101819.25;;;16.06;60.32
64343;BME280;50675;53.530;-6.312;2023-05-21T05:10:02;101820.63;;;16.08;60.57
64343;BME280;50675;53.530;-6.312;2023-05-21T05:12:27;101828.28;;;16.11;60.46
64343;BME280;50675;53.530;-6.312;2023-05-21T05:14:53;101825.31;;;16.13;60.68
64343;BME280;50675;53.530;-6.312;2023-05-21T05:17:19;101825.38;;;16.18;60.60
64343;BME280;50675;53.530;-6.312;2023-05-21T05:19:45;101821.31;;;16.20;60.77
64343;BME280;50675;53.530;-6.312;2023-05-21T05:22:11;101827.91;;;16.25;60.69
64343;BME280;50675;53.530;-6.312;2023-05-21T05:24:37;101826.56;;;16.27;60.78
64343;BME280;50675;53.530;-6.312;2023-05-21T05:27:02;101827.69;;;16.31;61.01
64343;BME280;50675;53.530;-6.312;2023-05-21T05:29:28;101818.44;;;16.32;60.93
64343;BME280;50675;53.530;-6.312;2023-05-21T05:31:54;101822.28;;;16.36;60.92
64343;BME280;50675;53.530;-6.312;2023-05-21T05:34:20;101825.31;;;16.40;60.88
64343;BME280;50675;53.530;-6.312;2023-05-21T05:36:46;101817.94;;;16.40;61.01
64343;BME280;50675;53.530;-6.312;2023-05-21T05:39:11;101827.25;;;16.44;60.98
64343;BME280;50675;53.530;-6.312;2023-05-21T05:41:37;101825.94;;;16.47;61.03
64343;BME280;50675;53.530;-6.312;2023-05-21T05:44:04;101819.13;;;16.49;60.88
64343;BME280;50675;53.530;-6.312;2023-05-21T05:46:30;101823.50;;;16.50;60.99
64343;BME280;50675;53.530;-6.312;2023-05-21T05:48:56;101823.81;;;16.54;60.94
64343;BME280;50675;53.530;-6.312;2023-05-21T05:51:22;101829.00;;;16.55;61.02
64343;BME280;50675;53.530;-6.312;2023-05-21T05:53:48;101828.50;;;16.58;61.10
64343;BME280;50675;53.530;-6.312;2023-05-21T05:56:14;101828.00;;;16.61;61.07
64343;BME280;50675;53.530;-6.312;2023-05-21T05:58:41;101833.75;;;16.65;61.07
64343;BME280;50675;53.530;-6.312;2023-05-21T06:01:07;101829.13;;;16.66;61.15
64343;BME280;50675;53.530;-6.312;2023-05-21T06:03:33;101831.59;;;16.67;61.14
64343;BME280;50675;53.530;-6.312;2023-05-21T06:05:59;101836.53;;;16.70;61.21
64343;BME280;50675;53.530;-6.312;2023-05-21T06:08:24;101833.56;;;16.72;61.13
64343;BME280;50675;53.530;-6.312;2023-05-21T06:10:50;101832.72;;;16.71;61.36
64343;BME280;50675;53.530;-6.312;2023-05-21T06:13:16;101842.63;;;16.77;61.22
64343;BME280;50675;53.530;-6.312;2023-05-21T06:15:43;101833.91;;;16.80;61.45
64343;BME280;50675;53.530;-6.312;2023-05-21T06:18:09;101837.44;;;16.81;61.42
64343;BME280;50675;53.530;-6.312;2023-05-21T06:20:35;101846.50;;;16.86;61.33
64343;BME280;50675;53.530;-6.312;2023-05-21T06:23:01;101840.25;;;16.91;61.40
64343;BME280;50675;53.530;-6.312;2023-05-21T06:25:27;101846.84;;;16.95;61.41
64343;BME280;50675;53.530;-6.312;2023-05-21T06:27:53;101841.38;;;16.95;61.35
64343;BME280;50675;53.530;-6.312;2023-05-21T06:30:19;101852.88;;;17.02;61.39
64343;BME280;50675;53.530;-6.312;2023-05-21T06:32:46;101852.91;;;17.07;61.50
64343;BME280;50675;53.530;-6.312;2023-05-21T06:35:11;101853.53;;;17.14;61.33
64343;BME280;50675;53.530;-6.312;2023-05-21T06:37:37;101856.81;;;17.16;61.76
64343;BME280;50675;53.530;-6.312;2023-05-21T06:40:03;101864.75;;;17.18;61.53
64343;BME280;50675;53.530;-6.312;2023-05-21T06:42:29;101854.16;;;17.26;61.64
64343;BME280;50675;53.530;-6.312;2023-05-21T06:44:55;101859.63;;;17.31;61.86
64343;BME280;50675;53.530;-6.312;2023-05-21T06:47:21;101853.38;;;17.36;61.70
64343;BME280;50675;53.530;-6.312;2023-05-21T06:49:47;101851.25;;;17.43;61.63
64343;BME280;50675;53.530;-6.312;2023-05-21T06:52:13;101852.94;;;17.54;61.75
64343;BME280;50675;53.530;-6.312;2023-05-21T06:54:39;101860.88;;;17.56;61.96
64343;BME280;50675;53.530;-6.312;2023-05-21T06:57:05;101853.25;;;17.58;61.59
64343;BME280;50675;53.530;-6.312;2023-05-21T06:59:32;101852.19;;;17.64;61.84
64343;BME280;50675;53.530;-6.312;2023-05-21T07:01:58;101870.25;;;17.65;61.86
64343;BME280;50675;53.530;-6.312;2023-05-21T07:04:24;101867.25;;;17.66;61.89
64343;BME280;50675;53.530;-6.312;2023-05-21T07:06:50;101855.50;;;17.66;61.73
64343;BME280;50675;53.530;-6.312;2023-05-21T07:09:16;101868.38;;;17.70;61.65
64343;BME280;50675;53.530;-6.312;2023-05-21T07:11:42;101863.19;;;17.74;62.11
64343;BME280;50675;53.530;-6.312;2023-05-21T07:14:08;101868.94;;;17.77;61.95
64343;BME280;50675;53.530;-6.312;2023-05-21T07:16:34;101867.03;;;17.78;61.92
64343;BME280;50675;53.530;-6.312;2023-05-21T07:19:01;101862.94;;;17.80;61.99
64343;BME280;50675;53.530;-6.312;2023-05-21T07:21:27;101865.41;;;17.82;61.64
64343;BME280;50675;53.530;-6.312;2023-05-21T07:23:53;101870.84;;;17.82;61.90
64343;BME280;50675;53.530;-6.312;2023-05-21T07:26:19;101867.34;;;17.81;61.66
64343;BME280;50675;53.530;-6.312;2023-05-21T07:28:45;101877.47;;;17.86;61.76
64343;BME280;50675;53.530;-6.312;2023-05-21T07:31:11;101874.72;;;17.86;61.86
64343;BME280;50675;53.530;-6.312;2023-05-21T07:33:37;101872.03;;;17.91;61.82
64343;BME280;50675;53.530;-6.312;2023-05-21T07:36:03;101878.03;;;17.93;62.15
64343;BME280;50675;53.530;-6.312;2023-05-21T07:38:29;101875.56;;;17.97;61.98
64343;BME280;50675;53.530;-6.312;2023-05-21T07:40:55;101879.41;;;17.96;61.85
64343;BME280;50675;53.530;-6.312;2023-05-21T07:43:21;101879.16;;;18.07;62.11
64343;BME280;50675;53.530;-6.312;2023-05-21T07:45:47;101883.59;;;18.18;61.49
64343;BME280;50675;53.530;-6.312;2023-05-21T07:48:13;101883.88;;;18.27;61.76
64343;BME280;50675;53.530;-6.312;2023-05-21T07:50:39;101887.19;;;18.34;61.56
64343;BME280;50675;53.530;-6.312;2023-05-21T07:53:07;101879.81;;;18.40;61.93
64343;BME280;50675;53.530;-6.312;2023-05-21T07:55:33;101885.28;;;18.45;61.98
64343;BME280;50675;53.530;-6.312;2023-05-21T07:57:59;101874.34;;;18.50;61.78
64343;BME280;50675;53.530;-6.312;2023-05-21T08:00:26;101890.81;;;18.60;61.83
64343;BME280;50675;53.530;-6.312;2023-05-21T08:02:52;101878.53;;;18.57;61.78
64343;BME280;50675;53.530;-6.312;2023-05-21T08:05:18;101886.16;;;18.60;61.83
64343;BME280;50675;53.530;-6.312;2023-05-21T08:07:45;101891.09;;;18.58;62.09
64343;BME280;50675;53.530;-6.312;2023-05-21T08:10:11;101884.53;;;18.59;62.13
64343;BME280;50675;53.530;-6.312;2023-05-21T08:12:37;101889.72;;;18.61;61.85
64343;BME280;50675;53.530;-6.312;2023-05-21T08:15:03;101886.44;;;18.59;62.19
64343;BME280;50675;53.530;-6.312;2023-05-21T08:17:29;101887.25;;;18.59;61.85
64343;BME280;50675;53.530;-6.312;2023-05-21T08:19:55;101883.19;;;18.62;61.76
64343;BME280;50675;53.530;-6.312;2023-05-21T08:22:20;101896.31;;;18.70;62.00
64343;BME280;50675;53.530;-6.312;2023-05-21T08:24:46;101889.19;;;18.74;61.90
64343;BME280;50675;53.530;-6.312;2023-05-21T08:27:12;101892.50;;;18.86;61.72
64343;BME280;50675;53.530;-6.312;2023-05-21T08:29:40;101894.69;;;18.89;61.68
64343;BME280;50675;53.530;-6.312;2023-05-21T08:32:07;101891.38;;;18.92;61.89
64343;BME280;50675;53.530;-6.312;2023-05-21T08:34:34;101889.75;;;18.76;61.90
64343;BME280;50675;53.530;-6.312;2023-05-21T08:37:00;101890.28;;;18.83;61.77
64343;BME280;50675;53.530;-6.312;2023-05-21T08:39:25;101896.59;;;18.99;61.91
64343;BME280;50675;53.530;-6.312;2023-05-21T08:41:55;101895.78;;;19.08;61.70
64343;BME280;50675;53.530;-6.312;2023-05-21T08:44:24;101893.03;;;19.13;61.61
64343;BME280;50675;53.530;-6.312;2023-05-21T08:46:52;101896.59;;;19.19;61.37
64343;BME280;50675;53.530;-6.312;2023-05-21T08:49:22;101907.25;;;19.15;61.77
64343;BME280;50675;53.530;-6.312;2023-05-21T08:51:52;101901.78;;;19.26;61.54
64343;BME280;50675;53.530;-6.312;2023-05-21T08:54:18;101906.16;;;19.37;61.44
64343;BME280;50675;53.530;-6.312;2023-05-21T08:56:45;101902.34;;;19.33;61.36
64343;BME280;50675;53.530;-6.312;2023-05-21T08:59:14;101902.88;;;19.45;61.49
64343;BME280;50675;53.530;-6.312;2023-05-21T09:01:41;101905.91;;;19.38;61.41
64343;BME280;50675;53.530;-6.312;2023-05-21T09:04:08;101902.03;;;19.49;61.65
64343;BME280;50675;53.530;-6.312;2023-05-21T09:06:36;101899.56;;;19.58;61.28
64343;BME280;50675;53.530;-6.312;2023-05-21T09:09:07;101906.66;;;19.64;61.21
64343;BME280;50675;53.530;-6.312;2023-05-21T09:11:35;101894.34;;;19.61;61.24
64343;BME280;50675;53.530;-6.312;2023-05-21T09:14:01;101906.41;;;19.65;61.04
64343;BME280;50675;53.530;-6.312;2023-05-21T09:16:28;101909.66;;;19.73;61.18
64343;BME280;50675;53.530;-6.312;2023-05-21T09:18:54;101913.78;;;19.75;61.26
64343;BME280;50675;53.530;-6.312;2023-05-21T09:21:29;101917.88;;;19.73;61.10
64343;BME280;50675;53.530;-6.312;2023-05-21T09:23:57;101918.09;;;19.91;61.07
64343;BME280;50675;53.530;-6.312;2023-05-21T09:26:23;101921.97;;;19.85;61.13
64343;BME280;50675;53.530;-6.312;2023-05-21T09:28:50;101915.34;;;19.96;61.26
64343;BME280;50675;53.530;-6.312;2023-05-21T09:31:16;101922.47;;;19.97;60.96
64343;BME280;50675;53.530;-6.312;2023-05-21T09:33:46;101915.88;;;19.98;60.70
64343;BME280;50675;53.530;-6.312;2023-05-21T09:36:17;101913.16;;;19.98;60.75
64343;BME280;50675;53.530;-6.312;2023-05-21T09:38:45;101919.19;;;20.00;60.95
64343;BME280;50675;53.530;-6.312;2023-05-21T09:41:12;101909.00;;;20.01;60.62
64343;BME280;50675;53.530;-6.312;2023-05-21T09:43:41;101912.91;;;19.90;60.56
64343;BME280;50675;53.530;-6.312;2023-05-21T09:46:08;101901.38;;;19.93;60.70
64343;BME280;50675;53.530;-6.312;2023-05-21T09:48:35;101898.13;;;19.86;60.41
64343;BME280;50675;53.530;-6.312;2023-05-21T09:51:18;101908.53;;;19.89;60.17
64343;BME280;50675;53.530;-6.312;2023-05-21T09:53:52;101911.81;;;19.91;60.63
64343;BME280;50675;53.530;-6.312;2023-05-21T09:56:23;101919.03;;;19.67;60.55
64343;BME280;50675;53.530;-6.312;2023-05-21T09:58:56;101911.00;;;19.85;60.16
64343;BME280;50675;53.530;-6.312;2023-05-21T10:01:23;101904.91;;;19.98;60.38
64343;BME280;50675;53.530;-6.312;2023-05-21T10:03:54;101902.16;;;20.03;60.24
64343;BME280;50675;53.530;-6.312;2023-05-21T10:06:26;101909.53;;;20.08;60.43
64343;BME280;50675;53.530;-6.312;2023-05-21T10:08:54;101905.69;;;20.14;60.15
64343;BME280;50675;53.530;-6.312;2023-05-21T10:11:25;101903.84;;;19.94;60.18
64343;BME280;50675;53.530;-6.312;2023-05-21T10:13:59;101900.22;;;20.09;59.91
64343;BME280;50675;53.530;-6.312;2023-05-21T10:16:26;101902.09;;;20.19;60.12
64343;BME280;50675;53.530;-6.312;2023-05-21T10:18:53;101900.41;;;20.23;59.75
64343;BME280;50675;53.530;-6.312;2023-05-21T10:21:23;101905.34;;;20.26;60.08
64343;BME280;50675;53.530;-6.312;2023-05-21T10:23:50;101894.34;;;20.31;59.78
64343;BME280;50675;53.530;-6.312;2023-05-21T10:26:18;101890.50;;;20.37;59.82
64343;BME280;50675;53.530;-6.312;2023-05-21T10:28:47;101896.50;;;20.39;59.63
64343;BME280;50675;53.530;-6.312;2023-05-21T10:31:13;101883.28;;;20.46;59.91
64343;BME280;50675;53.530;-6.312;2023-05-21T10:33:40;101887.25;;;20.69;59.49
64343;BME280;50675;53.530;-6.312;2023-05-21T10:36:07;101892.19;;;20.72;59.50
64343;BME280;50675;53.530;-6.312;2023-05-21T10:38:32;101894.88;;;20.77;59.23
64343;BME280;50675;53.530;-6.312;2023-05-21T10:40:59;101885.25;;;20.79;59.16
64343;BME280;50675;53.530;-6.312;2023-05-21T10:43:46;101901.72;;;20.79;59.28
64343;BME280;50675;53.530;-6.312;2023-05-21T10:54:50;101897.97;;;21.04;58.63
64343;BME280;50675;53.530;-6.312;2023-05-21T11:00:43;101898.41;;;20.82;58.23
64343;BME280;50675;53.530;-6.312;2023-05-21T11:03:11;101889.25;;;20.58;58.19
64343;BME280;50675;53.530;-6.312;2023-05-21T11:05:52;101905.06;;;20.76;57.96
64343;BME280;50675;53.530;-6.312;2023-05-21T11:08:23;101896.03;;;20.71;58.05
64343;BME280;50675;53.530;-6.312;2023-05-21T11:10:52;101899.41;;;20.58;57.57
64343;BME280;50675;53.530;-6.312;2023-05-21T11:13:18;101884.91;;;20.52;57.90
64343;BME280;50675;53.530;-6.312;2023-05-21T11:21:03;101883.56;;;20.44;57.35
64343;BME280;50675;53.530;-6.312;2023-05-21T11:26:20;101887.97;;;20.45;57.36
64343;BME280;50675;53.530;-6.312;2023-05-21T11:31:34;101884.63;;;20.48;57.09
64343;BME280;50675;53.530;-6.312;2023-05-21T11:36:36;101880.53;;;20.51;57.51
64343;BME280;50675;53.530;-6.312;2023-05-21T11:39:09;101882.38;;;20.61;57.37
64343;BME280;50675;53.530;-6.312;2023-05-21T11:41:57;101893.56;;;20.69;57.37
64343;BME280;50675;53.530;-6.312;2023-05-21T11:44:50;101883.03;;;20.81;57.56
64343;BME280;50675;53.530;-6.312;2023-05-21T11:47:17;101884.00;;;20.95;57.38
64343;BME280;50675;53.530;-6.312;2023-05-21T11:49:44;101879.56;;;21.05;57.07
64343;BME280;50675;53.530;-6.312;2023-05-21T11:52:12;101881.13;;;21.16;57.14
64343;BME280;50675;53.530;-6.312;2023-05-21T11:54:43;101874.88;;;21.34;57.19
64343;BME280;50675;53.530;-6.312;2023-05-21T11:57:11;101870.66;;;21.47;56.96
64343;BME280;50675;53.530;-6.312;2023-05-21T11:59:41;101871.09;;;21.54;57.24
64343;BME280;50675;53.530;-6.312;2023-05-21T12:02:07;101865.28;;;21.60;56.95
64343;BME280;50675;53.530;-6.312;2023-05-21T12:04:35;101873.75;;;21.64;56.81
64343;BME280;50675;53.530;-6.312;2023-05-21T12:07:05;101867.25;;;21.78;56.82
64343;BME280;50675;53.530;-6.312;2023-05-21T12:09:41;101869.19;;;21.78;56.83
64343;BME280;50675;53.530;-6.312;2023-05-21T12:12:07;101864.97;;;21.86;56.91
64343;BME280;50675;53.530;-6.312;2023-05-21T12:14:37;101862.56;;;21.79;56.63
64343;BME280;50675;53.530;-6.312;2023-05-21T12:17:04;101850.13;;;21.81;56.59
64343;BME280;50675;53.530;-6.312;2023-05-21T12:19:33;101860.09;;;21.77;56.95
64343;BME280;50675;53.530;-6.312;2023-05-21T12:22:04;101857.50;;;21.86;56.43
64343;BME280;50675;53.530;-6.312;2023-05-21T12:24:33;101861.16;;;21.81;56.59
64343;BME280;50675;53.530;-6.312;2023-05-21T12:27:00;101854.47;;;21.88;56.44
64343;BME280;50675;53.530;-6.312;2023-05-21T12:29:30;101867.63;;;21.91;56.26
64343;BME280;50675;53.530;-6.312;2023-05-21T12:32:00;101861.47;;;22.04;55.87
64343;BME280;50675;53.530;-6.312;2023-05-21T12:34:46;101860.78;;;21.88;56.08
64343;BME280;50675;53.530;-6.312;2023-05-21T12:37:17;101857.50;;;21.86;55.90
64343;BME280;50675;53.530;-6.312;2023-05-21T12:39:44;101866.81;;;21.95;55.84
64343;BME280;50675;53.530;-6.312;2023-05-21T12:42:11;101861.47;;;22.04;55.76
64343;BME280;50675;53.530;-6.312;2023-05-21T12:44:38;101859.81;;;22.21;55.41
64343;BME280;50675;53.530;-6.312;2023-05-21T12:47:05;101852.91;;;22.24;55.47
64343;BME280;50675;53.530;-6.312;2023-05-21T12:49:40;101856.94;;;22.32;55.38
64343;BME280;50675;53.530;-6.312;2023-05-21T12:52:11;101866.28;;;22.49;55.59
64343;BME280;50675;53.530;-6.312;2023-05-21T12:54:39;101868.78;;;22.32;55.19
64343;BME280;50675;53.530;-6.312;2023-05-21T12:57:16;101864.16;;;22.28;54.95
64343;BME280;50675;53.530;-6.312;2023-05-21T12:59:48;101862.66;;;22.35;54.90
64343;BME280;50675;53.530;-6.312;2023-05-21T13:02:15;101869.66;;;22.46;54.69
64343;BME280;50675;53.530;-6.312;2023-05-21T13:04:43;101870.91;;;22.35;54.63
64343;BME280;50675;53.530;-6.312;2023-05-21T13:07:09;101860.88;;;22.25;54.54
64343;BME280;50675;53.530;-6.312;2023-05-21T13:09:34;101855.22;;;22.17;54.86
64343;BME280;50675;53.530;-6.312;2023-05-21T13:12:01;101861.97;;;22.24;54.49
64343;BME280;50675;53.530;-6.312;2023-05-21T13:14:26;101865.94;;;22.18;54.33
64343;BME280;50675;53.530;-6.312;2023-05-21T13:16:52;101870.22;;;22.24;54.14
64343;BME280;50675;53.530;-6.312;2023-05-21T13:19:18;101866.44;;;22.20;54.24
64343;BME280;50675;53.530;-6.312;2023-05-21T13:21:44;101868.09;;;22.21;54.16
64343;BME280;50675;53.530;-6.312;2023-05-21T13:24:09;101872.25;;;22.19;54.09
64343;BME280;50675;53.530;-6.312;2023-05-21T13:26:35;101868.22;;;22.30;54.10
64343;BME280;50675;53.530;-6.312;2023-05-21T13:29:01;101874.28;;;22.32;53.89
64343;BME280;50675;53.530;-6.312;2023-05-21T13:31:27;101869.13;;;22.25;53.64
64343;BME280;50675;53.530;-6.312;2023-05-21T13:55:18;101876.00;;;22.47;53.20
64343;BME280;50675;53.530;-6.312;2023-05-21T13:57:44;101865.69;;;22.52;53.18
64343;BME280;50675;53.530;-6.312;2023-05-21T14:00:13;101869.19;;;22.58;52.94
64343;BME280;50675;53.530;-6.312;2023-05-21T14:02:41;101871.28;;;22.66;52.96
64343;BME280;50675;53.530;-6.312;2023-05-21T14:05:07;101871.88;;;22.63;52.97
64343;BME280;50675;53.530;-6.312;2023-05-21T14:07:33;101876.19;;;22.69;52.70
64343;BME280;50675;53.530;-6.312;2023-05-21T14:33:14;101865.81;;;22.29;51.96
64343;BME280;50675;53.530;-6.312;2023-05-21T14:35:40;101856.53;;;22.19;51.86
64343;BME280;50675;53.530;-6.312;2023-05-21T14:38:09;101868.50;;;22.10;51.67
64343;BME280;50675;53.530;-6.312;2023-05-21T14:40:35;101864.22;;;22.04;51.96
64343;BME280;50675;53.530;-6.312;2023-05-21T14:43:01;101872.69;;;21.83;51.91
64343;BME280;50675;53.530;-6.312;2023-05-21T14:45:27;101868.31;;;21.59;51.77
64343;BME280;50675;53.530;-6.312;2023-05-21T14:47:52;101857.03;;;21.60;51.72
64343;BME280;50675;53.530;-6.312;2023-05-21T14:50:19;101868.47;;;21.67;51.80
64343;BME280;50675;53.530;-6.312;2023-05-21T14:52:44;101874.63;;;21.59;51.75
64343;BME280;50675;53.530;-6.312;2023-05-21T14:55:10;101859.75;;;21.36;51.87
64343;BME280;50675;53.530;-6.312;2023-05-21T14:57:37;101874.84;;;21.39;51.85
64343;BME280;50675;53.530;-6.312;2023-05-21T15:00:03;101878.47;;;21.34;51.93
64343;BME280;50675;53.530;-6.312;2023-05-21T15:02:30;101868.34;;;20.96;52.05
64343;BME280;50675;53.530;-6.312;2023-05-21T15:04:56;101873.00;;;20.95;51.89
64343;BME280;50675;53.530;-6.312;2023-05-21T15:07:21;101869.66;;;21.04;51.80
64343;BME280;50675;53.530;-6.312;2023-05-21T15:09:47;101859.03;;;20.92;51.94
64343;BME280;50675;53.530;-6.312;2023-05-21T15:12:13;101866.19;;;20.93;52.10
64343;BME280;50675;53.530;-6.312;2023-05-21T15:14:39;101856.84;;;20.94;51.79
64343;BME280;50675;53.530;-6.312;2023-05-21T15:17:05;101863.19;;;20.89;51.60
64343;BME280;50675;53.530;-6.312;2023-05-21T15:19:31;101870.44;;;20.80;52.14
64343;BME280;50675;53.530;-6.312;2023-05-21T15:21:56;101872.16;;;20.71;51.79
64343;BME280;50675;53.530;-6.312;2023-05-21T15:24:22;101860.97;;;20.91;52.17
64343;BME280;50675;53.530;-6.312;2023-05-21T15:26:48;101859.91;;;20.87;52.09
64343;BME280;50675;53.530;-6.312;2023-05-21T15:29:14;101854.47;;;20.82;52.27
64343;BME280;50675;53.530;-6.312;2023-05-21T15:31:40;101858.06;;;20.78;52.24
64343;BME280;50675;53.530;-6.312;2023-05-21T15:34:06;101852.19;;;20.94;52.19
64343;BME280;50675;53.530;-6.312;2023-05-21T15:36:31;101837.16;;;20.82;52.08
64343;BME280;50675;53.530;-6.312;2023-05-21T15:38:57;101858.25;;;20.86;52.19
64343;BME280;50675;53.530;-6.312;2023-05-21T15:41:27;101854.09;;;20.94;51.93
64343;BME280;50675;53.530;-6.312;2023-05-21T15:43:59;101859.91;;;20.87;52.09
64343;BME280;50675;53.530;-6.312;2023-05-21T15:46:25;101858.31;;;20.81;52.32
64343;BME280;50675;53.530;-6.312;2023-05-21T15:48:51;101855.63;;;20.76;52.04
64343;BME280;50675;53.530;-6.312;2023-05-21T15:51:17;101848.53;;;20.70;52.15
64343;BME280;50675;53.530;-6.312;2023-05-21T15:53:43;101863.91;;;20.71;52.19
64343;BME280;50675;53.530;-6.312;2023-05-21T15:56:08;101858.47;;;20.66;52.26
64343;BME280;50675;53.530;-6.312;2023-05-21T15:58:37;101864.91;;;20.46;52.28
64343;BME280;50675;53.530;-6.312;2023-05-21T16:03:34;101848.97;;;20.48;52.47
64343;BME280;50675;53.530;-6.312;2023-05-21T16:06:00;101859.38;;;20.51;52.54
64343;BME280;50675;53.530;-6.312;2023-05-21T16:08:26;101858.81;;;20.55;52.43
64343;BME280;50675;53.530;-6.312;2023-05-21T16:10:55;101854.97;;;20.56;52.25
64343;BME280;50675;53.530;-6.312;2023-05-21T16:13:21;101862.53;;;20.69;52.52
64343;BME280;50675;53.530;-6.312;2023-05-21T16:15:47;101855.72;;;20.66;52.21
64343;BME280;50675;53.530;-6.312;2023-05-21T16:18:13;101874.31;;;20.74;52.43
64343;BME280;50675;53.530;-6.312;2023-05-21T16:20:42;101865.47;;;20.77;52.60
64343;BME280;50675;53.530;-6.312;2023-05-21T16:23:08;101859.59;;;20.60;52.49
64343;BME280;50675;53.530;-6.312;2023-05-21T16:25:36;101854.84;;;20.71;52.35
64343;BME280;50675;53.530;-6.312;2023-05-21T16:28:02;101863.13;;;20.66;52.48
64343;BME280;50675;53.530;-6.312;2023-05-21T16:30:28;101850.72;;;20.68;52.43
64343;BME280;50675;53.530;-6.312;2023-05-21T16:32:54;101865.66;;;20.57;52.85
64343;BME280;50675;53.530;-6.312;2023-05-21T16:35:20;101865.16;;;20.50;52.83
64343;BME280;50675;53.530;-6.312;2023-05-21T16:37:46;101862.38;;;20.55;52.80
64343;BME280;50675;53.530;-6.312;2023-05-21T16:40:12;101863.44;;;20.59;52.63
64343;BME280;50675;53.530;-6.312;2023-05-21T16:42:38;101864.63;;;20.48;52.57
64343;BME280;50675;53.530;-6.312;2023-05-21T16:45:05;101858.88;;;20.44;52.87
64343;BME280;50675;53.530;-6.312;2023-05-21T16:47:30;101854.03;;;20.31;52.92
64343;BME280;50675;53.530;-6.312;2023-05-21T16:49:56;101860.53;;;20.40;52.72
64343;BME280;50675;53.530;-6.312;2023-05-21T16:52:23;101860.31;;;20.37;52.62
64343;BME280;50675;53.530;-6.312;2023-05-21T16:54:49;101868.31;;;20.23;52.89
64343;BME280;50675;53.530;-6.312;2023-05-21T16:57:15;101861.47;;;20.16;52.94
64343;BME280;50675;53.530;-6.312;2023-05-21T16:59:43;101865.06;;;20.11;53.00
64343;BME280;50675;53.530;-6.312;2023-05-21T17:02:10;101867.56;;;20.07;52.87
64343;BME280;50675;53.530;-6.312;2023-05-21T17:04:37;101865.69;;;20.03;53.01
64343;BME280;50675;53.530;-6.312;2023-05-21T17:07:03;101860.81;;;19.90;53.07
64343;BME280;50675;53.530;-6.312;2023-05-21T17:09:29;101868.72;;;19.91;53.02
64343;BME280;50675;53.530;-6.312;2023-05-21T17:11:55;101857.00;;;19.81;52.80
64343;BME280;50675;53.530;-6.312;2023-05-21T17:14:21;101853.19;;;19.77;53.05
64343;BME280;50675;53.530;-6.312;2023-05-21T17:16:46;101846.88;;;19.81;52.99
64343;BME280;50675;53.530;-6.312;2023-05-21T17:19:13;101856.72;;;19.82;53.09
64343;BME280;50675;53.530;-6.312;2023-05-21T17:21:39;101837.56;;;19.72;53.46
64343;BME280;50675;53.530;-6.312;2023-05-21T17:24:05;101844.22;;;19.56;53.27
64343;BME280;50675;53.530;-6.312;2023-05-21T17:26:31;101836.50;;;19.63;53.28
64343;BME280;50675;53.530;-6.312;2023-05-21T17:28:57;101839.22;;;19.68;53.50
64343;BME280;50675;53.530;-6.312;2023-05-21T17:31:23;101847.13;;;19.80;53.42
64343;BME280;50675;53.530;-6.312;2023-05-21T17:33:49;101844.19;;;19.61;53.19
64343;BME280;50675;53.530;-6.312;2023-05-21T17:36:16;101850.22;;;19.58;53.62
64343;BME280;50675;53.530;-6.312;2023-05-21T17:38:42;101845.56;;;19.58;53.63
64343;BME280;50675;53.530;-6.312;2023-05-21T17:41:08;101842.28;;;19.56;53.59
64343;BME280;50675;53.530;-6.312;2023-05-21T17:43:34;101841.44;;;19.61;53.62
64343;BME280;50675;53.530;-6.312;2023-05-21T17:46:00;101837.34;;;19.53;53.56
64343;BME280;50675;53.530;-6.312;2023-05-21T17:48:26;101847.53;;;19.53;53.82
64343;BME280;50675;53.530;-6.312;2023-05-21T17:50:52;101855.47;;;19.44;53.30
64343;BME280;50675;53.530;-6.312;2023-05-21T17:53:18;101841.75;;;19.49;53.86
64343;BME280;50675;53.530;-6.312;2023-05-21T17:55:44;101858.22;;;19.44;53.75
64343;BME280;50675;53.530;-6.312;2023-05-21T17:58:10;101863.16;;;19.32;54.01
64343;BME280;50675;53.530;-6.312;2023-05-21T18:00:36;101858.50;;;19.28;53.56